METAR Data
IDs: Format: Raw Decoded Include TAF

Data at: 0836 UTC 01 Aug 2021

METAR for:KHSE (Hatteras/Mitchell Fl, NC, US)
Text:KHSE 010811Z AUTO 00000KT 4SM BR CLR 25/24 A2988 RMK AO2 LTG DSNT SW T02500244 $
Temperature: 25.0°C ( 77°F)
Dewpoint: 24.4°C ( 76°F) [RH = 96%]
Pressure (altimeter):29.88 inches Hg (1011.9 mb)
Winds:calm
Visibility: 4 sm ( 6 km)
Ceiling:at least 12,000 feet AGL
Clouds:sky clear below 12,000 feet AGL
Weather:BR (mist)
QC Flag:automated observation with no human augmentation; SOME DATA ABOVE MAY BE INACCURATE!!!"$" is an indication the sensor requires maintenance.
Text:KHSE 010751Z AUTO 06003KT 2 1/2SM BR FEW075 25/24 A2988 RMK AO2 SLP118 T02500239 $
Temperature: 25.0°C ( 77°F)
Dewpoint: 23.9°C ( 75°F) [RH = 94%]
Pressure (altimeter):29.88 inches Hg (1011.9 mb) [Sea level pressure: 1011.8 mb]
Winds:from the ENE (60 degrees) at 3 MPH (3 knots; 1.5 m/s)
Visibility: 2.50 sm ( 4.02 km)
Ceiling:at least 12,000 feet AGL
Clouds: few clouds at 7500 feet AGL
Weather:BR (mist)
QC Flag:automated observation with no human augmentation; SOME DATA ABOVE MAY BE INACCURATE!!!"$" is an indication the sensor requires maintenance.
Text:KHSE 010651Z AUTO 00000KT 5SM BR CLR 25/24 A2988 RMK AO2 SLP119 T02500244 $
Temperature: 25.0°C ( 77°F)
Dewpoint: 24.4°C ( 76°F) [RH = 96%]
Pressure (altimeter):29.88 inches Hg (1011.9 mb) [Sea level pressure: 1011.9 mb]
Winds:calm
Visibility: 5 sm ( 8 km)
Ceiling:at least 12,000 feet AGL
Clouds:sky clear below 12,000 feet AGL
Weather:BR (mist)
QC Flag:automated observation with no human augmentation; SOME DATA ABOVE MAY BE INACCURATE!!!"$" is an indication the sensor requires maintenance.
Text:KHSE 010551Z AUTO 00000KT 5SM BR CLR 26/24 A2988 RMK AO2 SLP118 60001 T02560244 10267 20250 58015 $
Temperature: 25.6°C ( 78°F)
Dewpoint: 24.4°C ( 76°F) [RH = 93%]
Pressure (altimeter):29.88 inches Hg (1011.9 mb) [Sea level pressure: 1011.8 mb]
Winds:calm
Visibility: 5 sm ( 8 km)
Ceiling:at least 12,000 feet AGL
Clouds:sky clear below 12,000 feet AGL
Weather:BR (mist)
QC Flag:automated observation with no human augmentation; SOME DATA ABOVE MAY BE INACCURATE!!!"$" is an indication the sensor requires maintenance.
Text:KHSE 010524Z AUTO 00000KT 4SM BR FEW018 26/24 A2989 RMK AO2 T02560244 $
Temperature: 25.6°C ( 78°F)
Dewpoint: 24.4°C ( 76°F) [RH = 93%]
Pressure (altimeter):29.89 inches Hg (1012.3 mb)
Winds:calm
Visibility: 4 sm ( 6 km)
Ceiling:at least 12,000 feet AGL
Clouds: few clouds at 1800 feet AGL
Weather:BR (mist)
QC Flag:automated observation with no human augmentation; SOME DATA ABOVE MAY BE INACCURATE!!!"$" is an indication the sensor requires maintenance.
Text:KHSE 010510Z AUTO 08003KT 2 1/2SM BR FEW018 25/24 A2989 RMK AO2 T02500244 $
Temperature: 25.0°C ( 77°F)
Dewpoint: 24.4°C ( 76°F) [RH = 96%]
Pressure (altimeter):29.89 inches Hg (1012.3 mb)
Winds:from the E (80 degrees) at 3 MPH (3 knots; 1.5 m/s)
Visibility: 2.50 sm ( 4.02 km)
Ceiling:at least 12,000 feet AGL
Clouds: few clouds at 1800 feet AGL
Weather:BR (mist)
QC Flag:automated observation with no human augmentation; SOME DATA ABOVE MAY BE INACCURATE!!!"$" is an indication the sensor requires maintenance.
Text:KHSE 010451Z AUTO 08003KT 5SM BR CLR 26/24 A2990 RMK AO2 SLP125 T02560244 403170244 $
Temperature: 25.6°C ( 78°F)
Dewpoint: 24.4°C ( 76°F) [RH = 93%]
Pressure (altimeter):29.90 inches Hg (1012.6 mb) [Sea level pressure: 1012.5 mb]
Winds:from the E (80 degrees) at 3 MPH (3 knots; 1.5 m/s)
Visibility: 5 sm ( 8 km)
Ceiling:at least 12,000 feet AGL
Clouds:sky clear below 12,000 feet AGL
Weather:BR (mist)
QC Flag:automated observation with no human augmentation; SOME DATA ABOVE MAY BE INACCURATE!!!"$" is an indication the sensor requires maintenance.
Text:KHSE 010351Z AUTO 07003KT 6SM BR CLR 26/24 A2992 RMK AO2 SLP132 T02560244 $
Temperature: 25.6°C ( 78°F)
Dewpoint: 24.4°C ( 76°F) [RH = 93%]
Pressure (altimeter):29.92 inches Hg (1013.3 mb) [Sea level pressure: 1013.2 mb]
Winds:from the ENE (70 degrees) at 3 MPH (3 knots; 1.5 m/s)
Visibility: 6 sm ( 10 km)
Ceiling:at least 12,000 feet AGL
Clouds:sky clear below 12,000 feet AGL
Weather:BR (mist)
QC Flag:automated observation with no human augmentation; SOME DATA ABOVE MAY BE INACCURATE!!!"$" is an indication the sensor requires maintenance.
Text:KHSE 010251Z AUTO 00000KT 9SM CLR 26/25 A2993 RMK AO2 SLP133 60001 T02610250 50002 $
Temperature: 26.1°C ( 79°F)
Dewpoint: 25.0°C ( 77°F) [RH = 94%]
Pressure (altimeter):29.93 inches Hg (1013.6 mb) [Sea level pressure: 1013.3 mb]
Winds:calm
Visibility: 9 sm ( 14 km)
Ceiling:at least 12,000 feet AGL
Clouds:sky clear below 12,000 feet AGL
QC Flag:automated observation with no human augmentation; SOME DATA ABOVE MAY BE INACCURATE!!!"$" is an indication the sensor requires maintenance.
Text:KHSE 010151Z AUTO 00000KT 9SM CLR 26/24 A2993 RMK AO2 SLP136 T02560239 $
Temperature: 25.6°C ( 78°F)
Dewpoint: 23.9°C ( 75°F) [RH = 90%]
Pressure (altimeter):29.93 inches Hg (1013.6 mb) [Sea level pressure: 1013.6 mb]
Winds:calm
Visibility: 9 sm ( 14 km)
Ceiling:at least 12,000 feet AGL
Clouds:sky clear below 12,000 feet AGL
QC Flag:automated observation with no human augmentation; SOME DATA ABOVE MAY BE INACCURATE!!!"$" is an indication the sensor requires maintenance.
Text:KHSE 010051Z AUTO 00000KT 10SM CLR 26/23 A2992 RMK AO2 SLP131 P0001 T02560233 $
Temperature: 25.6°C ( 78°F)
Dewpoint: 23.3°C ( 74°F) [RH = 87%]
Pressure (altimeter):29.92 inches Hg (1013.3 mb) [Sea level pressure: 1013.1 mb]
Winds:calm
Visibility:10 or more sm (16+ km)
Ceiling:at least 12,000 feet AGL
Clouds:sky clear below 12,000 feet AGL
QC Flag:automated observation with no human augmentation; SOME DATA ABOVE MAY BE INACCURATE!!!"$" is an indication the sensor requires maintenance.
Text:KHSE 312351Z AUTO 00000KT 10SM FEW040 FEW100 26/23 A2992 RMK AO2 LTG DSNT NE-SE RAE43 TSE19 SLP131 P0018 60057 T02560233 10317 20244 53002 $
Temperature: 25.6°C ( 78°F)
Dewpoint: 23.3°C ( 74°F) [RH = 87%]
Pressure (altimeter):29.92 inches Hg (1013.3 mb) [Sea level pressure: 1013.1 mb]
Winds:calm
Visibility:10 or more sm (16+ km)
Ceiling:at least 12,000 feet AGL
Clouds: few clouds at 4000 feet AGL, few clouds at 10000 feet AGL
QC Flag:automated observation with no human augmentation; SOME DATA ABOVE MAY BE INACCURATE!!!"$" is an indication the sensor requires maintenance.
Text:KHSE 312325Z AUTO 35004KT 10SM VCTS -RA FEW048 FEW075 BKN110 25/23 A2992 RMK AO2 LTG DSNT N-E TSE19 P0018 T02500233 $
Temperature: 25.0°C ( 77°F)
Dewpoint: 23.3°C ( 74°F) [RH = 90%]
Pressure (altimeter):29.92 inches Hg (1013.3 mb)
Winds:from the N (350 degrees) at 5 MPH (4 knots; 2.1 m/s)
Visibility:10 or more sm (16+ km)
Ceiling:11000 feet AGL
Clouds: few clouds at 4800 feet AGL, few clouds at 7500 feet AGL, broken clouds at 11000 feet AGL
Weather:VCTS -RA (thunderstorm in vicinity, light rain)
QC Flag:automated observation with no human augmentation; SOME DATA ABOVE MAY BE INACCURATE!!!"$" is an indication the sensor requires maintenance.
Text:KHSE 312317Z AUTO 01003KT 8SM -TSRA FEW015 SCT042 BKN095 24/23 A2991 RMK AO2 LTG DSNT N-E P0018 T02440228 $
Temperature: 24.4°C ( 76°F)
Dewpoint: 22.8°C ( 73°F) [RH = 91%]
Pressure (altimeter):29.91 inches Hg (1013.0 mb)
Winds:from the N (10 degrees) at 3 MPH (3 knots; 1.5 m/s)
Visibility: 8 sm ( 13 km)
Ceiling:9500 feet AGL
Clouds: few clouds at 1500 feet AGL, scattered clouds at 4200 feet AGL, broken clouds at 9500 feet AGL
Weather:-TSRA (light rain associated with thunderstorm(s))
QC Flag:automated observation with no human augmentation; SOME DATA ABOVE MAY BE INACCURATE!!!"$" is an indication the sensor requires maintenance.
Text:KHSE 312308Z AUTO 04004KT 2SM TSRA BR FEW013 BKN040 OVC110 25/24 A2991 RMK AO2 VIS 1 1/4V4 P0018 T02500244 $
Temperature: 25.0°C ( 77°F)
Dewpoint: 24.4°C ( 76°F) [RH = 96%]
Pressure (altimeter):29.91 inches Hg (1013.0 mb)
Winds:from the NE (40 degrees) at 5 MPH (4 knots; 2.1 m/s)
Visibility: 2.00 sm ( 3.22 km)
Ceiling:4000 feet AGL
Clouds: few clouds at 1300 feet AGL, broken clouds at 4000 feet AGL, overcast cloud deck at 11000 feet AGL
Weather:TSRA BR (rain associated with thunderstorm(s), mist)
QC Flag:automated observation with no human augmentation; SOME DATA ABOVE MAY BE INACCURATE!!!"$" is an indication the sensor requires maintenance.
Text:KHSE 312300Z AUTO VRB04G17KT 1SM TSRA BR FEW010 BKN039 OVC070 25/24 A2992 RMK AO2 P0016 T02500244 $
Temperature: 25.0°C ( 77°F)
Dewpoint: 24.4°C ( 76°F) [RH = 96%]
Pressure (altimeter):29.92 inches Hg (1013.3 mb)
Winds:variable direction winds at 5 MPH (4 knots; 2.1 m/s) gusting to 20 MPH (17 knots; 8.7 m/s)
Visibility: 1.00 sm ( 1.61 km)
Ceiling:3900 feet AGL
Clouds: few clouds at 1000 feet AGL, broken clouds at 3900 feet AGL, overcast cloud deck at 7000 feet AGL
Weather:TSRA BR (rain associated with thunderstorm(s), mist)
QC Flag:automated observation with no human augmentation; SOME DATA ABOVE MAY BE INACCURATE!!!"$" is an indication the sensor requires maintenance.
Text:KHSE 312251Z AUTO 32009G21KT 290V350 1/2SM +TSRA FG FEW008 BKN017 OVC110 26/24 A2992 RMK AO2 RAB2157 TSB26 SLP132 P0039 T02610244 $
Temperature: 26.1°C ( 79°F)
Dewpoint: 24.4°C ( 76°F) [RH = 90%]
Pressure (altimeter):29.92 inches Hg (1013.3 mb) [Sea level pressure: 1013.2 mb]
Winds:from the NW (320 degrees) at 10 MPH (9 knots; 4.6 m/s) gusting to 24 MPH (21 knots; 10.8 m/s)
Visibility: 0.50 sm ( 0.80 km)
Ceiling:1700 feet AGL
Clouds: few clouds at 800 feet AGL, broken clouds at 1700 feet AGL, overcast cloud deck at 11000 feet AGL
Weather:+TSRA FG (heavy rain associated with thunderstorm(s), fog)
QC Flag:automated observation with no human augmentation; SOME DATA ABOVE MAY BE INACCURATE!!!"$" is an indication the sensor requires maintenance.
Text:KHSE 312244Z AUTO 29013G21KT 3/4SM +TSRA BR SCT010 BKN029 OVC110 27/25 A2992 RMK AO2 LTG DSNT W AND NW RAB2157 TSB26 P0012 T02670250 $
Temperature: 26.7°C ( 80°F)
Dewpoint: 25.0°C ( 77°F) [RH = 90%]
Pressure (altimeter):29.92 inches Hg (1013.3 mb)
Winds:from the WNW (290 degrees) at 15 MPH (13 knots; 6.7 m/s) gusting to 24 MPH (21 knots; 10.8 m/s)
Visibility: 0.75 sm ( 1.21 km)
Ceiling:2900 feet AGL
Clouds: scattered clouds at 1000 feet AGL, broken clouds at 2900 feet AGL, overcast cloud deck at 11000 feet AGL
Weather:+TSRA BR (heavy rain associated with thunderstorm(s), mist)
QC Flag:automated observation with no human augmentation; SOME DATA ABOVE MAY BE INACCURATE!!!"$" is an indication the sensor requires maintenance.
Text:KHSE 312235Z AUTO 29003KT 3/4SM +TSRA BR SCT029 BKN090 OVC110 28/27 A2992 RMK AO2 LTG DSNT SW AND W RAB2157 TSB26 P0007 T02830267 $
Temperature: 28.3°C ( 83°F)
Dewpoint: 26.7°C ( 80°F) [RH = 91%]
Pressure (altimeter):29.92 inches Hg (1013.3 mb)
Winds:from the WNW (290 degrees) at 3 MPH (3 knots; 1.5 m/s)
Visibility: 0.75 sm ( 1.21 km)
Ceiling:9000 feet AGL
Clouds: scattered clouds at 2900 feet AGL, broken clouds at 9000 feet AGL, overcast cloud deck at 11000 feet AGL
Weather:+TSRA BR (heavy rain associated with thunderstorm(s), mist)
QC Flag:automated observation with no human augmentation; SOME DATA ABOVE MAY BE INACCURATE!!!"$" is an indication the sensor requires maintenance.
Text:KHSE 312226Z AUTO 00000KT 1 1/2SM TSRA BR FEW035 SCT085 BKN110 28/26 A2991 RMK AO2 LTG DSNT SW AND W RAB2157 TSB26 P0004 T02830261 $
Temperature: 28.3°C ( 83°F)
Dewpoint: 26.1°C ( 79°F) [RH = 88%]
Pressure (altimeter):29.91 inches Hg (1013.0 mb)
Winds:calm
Visibility: 1.50 sm ( 2.41 km)
Ceiling:11000 feet AGL
Clouds: few clouds at 3500 feet AGL, scattered clouds at 8500 feet AGL, broken clouds at 11000 feet AGL
Weather:TSRA BR (rain associated with thunderstorm(s), mist)
QC Flag:automated observation with no human augmentation; SOME DATA ABOVE MAY BE INACCURATE!!!"$" is an indication the sensor requires maintenance.
Text:KHSE 312222Z AUTO 00000KT 1 1/4SM VCTS RA BR FEW035 SCT075 BKN110 28/26 A2990 RMK AO2 LTG DSNT SW AND W RAB2157 P0003 T02830261 $
Temperature: 28.3°C ( 83°F)
Dewpoint: 26.1°C ( 79°F) [RH = 88%]
Pressure (altimeter):29.90 inches Hg (1012.6 mb)
Winds:calm
Visibility: 1.25 sm ( 2.01 km)
Ceiling:11000 feet AGL
Clouds: few clouds at 3500 feet AGL, scattered clouds at 7500 feet AGL, broken clouds at 11000 feet AGL
Weather:VCTS RA BR (thunderstorm in vicinity, moderate rain, mist)
QC Flag:automated observation with no human augmentation; SOME DATA ABOVE MAY BE INACCURATE!!!"$" is an indication the sensor requires maintenance.
Text:KHSE 312215Z AUTO 25003KT 2SM VCTS RA BR FEW035 SCT090 BKN110 28/26 A2991 RMK AO2 LTG DSNT W AND NW RAB2157 P0001 T02830261 $
Temperature: 28.3°C ( 83°F)
Dewpoint: 26.1°C ( 79°F) [RH = 88%]
Pressure (altimeter):29.91 inches Hg (1013.0 mb)
Winds:from the WSW (250 degrees) at 3 MPH (3 knots; 1.5 m/s)
Visibility: 2.00 sm ( 3.22 km)
Ceiling:11000 feet AGL
Clouds: few clouds at 3500 feet AGL, scattered clouds at 9000 feet AGL, broken clouds at 11000 feet AGL
Weather:VCTS RA BR (thunderstorm in vicinity, moderate rain, mist)
QC Flag:automated observation with no human augmentation; SOME DATA ABOVE MAY BE INACCURATE!!!"$" is an indication the sensor requires maintenance.
Text:KHSE 312151Z AUTO VRB04KT 5SM VCTS HZ FEW120 29/26 A2991 RMK AO2 LTG DSNT W SLP126 T02940256 $
Temperature: 29.4°C ( 85°F)
Dewpoint: 25.6°C ( 78°F) [RH = 80%]
Pressure (altimeter):29.91 inches Hg (1013.0 mb) [Sea level pressure: 1012.6 mb]
Winds:variable direction winds at 5 MPH (4 knots; 2.1 m/s)
Visibility: 5 sm ( 8 km)
Ceiling:at least 12,000 feet AGL
Clouds: few clouds at 12000 feet AGL
Weather:VCTS HZ (thunderstorm in vicinity, haze)
QC Flag:automated observation with no human augmentation; SOME DATA ABOVE MAY BE INACCURATE!!!"$" is an indication the sensor requires maintenance.
Text:KHSE 312051Z AUTO VRB06KT 7SM CLR 31/27 A2991 RMK AO2 SLP129 T03110267 55000 $
Temperature: 31.1°C ( 88°F)
Dewpoint: 26.7°C ( 80°F) [RH = 78%]
Pressure (altimeter):29.91 inches Hg (1013.0 mb) [Sea level pressure: 1012.9 mb]
Winds:variable direction winds at 7 MPH (6 knots; 3.1 m/s)
Visibility: 7 sm ( 11 km)
Ceiling:at least 12,000 feet AGL
Clouds:sky clear below 12,000 feet AGL
QC Flag:automated observation with no human augmentation; SOME DATA ABOVE MAY BE INACCURATE!!!"$" is an indication the sensor requires maintenance.
Text:KHSE 311951Z AUTO VRB05KT 7SM FEW120 31/26 A2991 RMK AO2 SLP127 T03110256 $
Temperature: 31.1°C ( 88°F)
Dewpoint: 25.6°C ( 78°F) [RH = 73%]
Pressure (altimeter):29.91 inches Hg (1013.0 mb) [Sea level pressure: 1012.7 mb]
Winds:variable direction winds at 6 MPH (5 knots; 2.6 m/s)
Visibility: 7 sm ( 11 km)
Ceiling:at least 12,000 feet AGL
Clouds: few clouds at 12000 feet AGL
QC Flag:automated observation with no human augmentation; SOME DATA ABOVE MAY BE INACCURATE!!!"$" is an indication the sensor requires maintenance.
Text:KHSE 311851Z AUTO 24005KT 7SM FEW110 31/26 A2990 RMK AO2 SLP125 T03110261 $
Temperature: 31.1°C ( 88°F)
Dewpoint: 26.1°C ( 79°F) [RH = 75%]
Pressure (altimeter):29.90 inches Hg (1012.6 mb) [Sea level pressure: 1012.5 mb]
Winds:from the WSW (240 degrees) at 6 MPH (5 knots; 2.6 m/s)
Visibility: 7 sm ( 11 km)
Ceiling:at least 12,000 feet AGL
Clouds: few clouds at 11000 feet AGL
QC Flag:automated observation with no human augmentation; SOME DATA ABOVE MAY BE INACCURATE!!!"$" is an indication the sensor requires maintenance.
Text:KHSE 311551Z AUTO 21007KT 7SM CLR 30/26 A2994 RMK AO2 SLP138 T03000256 $
Temperature: 30.0°C ( 86°F)
Dewpoint: 25.6°C ( 78°F) [RH = 77%]
Pressure (altimeter):29.94 inches Hg (1014.0 mb) [Sea level pressure: 1013.8 mb]
Winds:from the SSW (210 degrees) at 8 MPH (7 knots; 3.6 m/s)
Visibility: 7 sm ( 11 km)
Ceiling:at least 12,000 feet AGL
Clouds:sky clear below 12,000 feet AGL
QC Flag:automated observation with no human augmentation; SOME DATA ABOVE MAY BE INACCURATE!!!"$" is an indication the sensor requires maintenance.
Text:KHSE 311144Z AUTO 04003KT 7SM FEW029 27/25 A2992 RMK AO2 LTG DSNT SE AND S T02670250 $
Temperature: 26.7°C ( 80°F)
Dewpoint: 25.0°C ( 77°F) [RH = 90%]
Pressure (altimeter):29.92 inches Hg (1013.3 mb)
Winds:from the NE (40 degrees) at 3 MPH (3 knots; 1.5 m/s)
Visibility: 7 sm ( 11 km)
Ceiling:at least 12,000 feet AGL
Clouds: few clouds at 2900 feet AGL
QC Flag:automated observation with no human augmentation; SOME DATA ABOVE MAY BE INACCURATE!!!"$" is an indication the sensor requires maintenance.
Text:KHSE 311032Z AUTO 11004KT 3SM BR SCT014 OVC026 26/24 A2992 RMK AO2 LTG DSNT E RAE19 TSB0956E25 P0011 T02560244 $
Temperature: 25.6°C ( 78°F)
Dewpoint: 24.4°C ( 76°F) [RH = 93%]
Pressure (altimeter):29.92 inches Hg (1013.3 mb)
Winds:from the ESE (110 degrees) at 5 MPH (4 knots; 2.1 m/s)
Visibility: 3 sm ( 5 km)
Ceiling:2600 feet AGL
Clouds: scattered clouds at 1400 feet AGL, overcast cloud deck at 2600 feet AGL
Weather:BR (mist)
QC Flag:automated observation with no human augmentation; SOME DATA ABOVE MAY BE INACCURATE!!!"$" is an indication the sensor requires maintenance.
Text:KHSE 311025Z AUTO 00000KT 7SM FEW009 BKN014 OVC025 25/24 A2992 RMK AO2 LTG DSNT E RAE19 TSB0956E25 P0011 T02500244 $
Temperature: 25.0°C ( 77°F)
Dewpoint: 24.4°C ( 76°F) [RH = 96%]
Pressure (altimeter):29.92 inches Hg (1013.3 mb)
Winds:calm
Visibility: 7 sm ( 11 km)
Ceiling:1400 feet AGL
Clouds: few clouds at 900 feet AGL, broken clouds at 1400 feet AGL, overcast cloud deck at 2500 feet AGL
QC Flag:automated observation with no human augmentation; SOME DATA ABOVE MAY BE INACCURATE!!!"$" is an indication the sensor requires maintenance.
Text:KHSE 311017Z AUTO 08005KT 7SM -TSRA FEW009 BKN016 OVC025 26/24 A2991 RMK AO2 LTG DSNT E TSB0956 P0009 T02560244 $
Temperature: 25.6°C ( 78°F)
Dewpoint: 24.4°C ( 76°F) [RH = 93%]
Pressure (altimeter):29.91 inches Hg (1013.0 mb)
Winds:from the E (80 degrees) at 6 MPH (5 knots; 2.6 m/s)
Visibility: 7 sm ( 11 km)
Ceiling:1600 feet AGL
Clouds: few clouds at 900 feet AGL, broken clouds at 1600 feet AGL, overcast cloud deck at 2500 feet AGL
Weather:-TSRA (light rain associated with thunderstorm(s))
QC Flag:automated observation with no human augmentation; SOME DATA ABOVE MAY BE INACCURATE!!!"$" is an indication the sensor requires maintenance.
Text:KHSE 310956Z AUTO 12005KT 4SM -TSRA BR BKN011 OVC016 27/26 A2991 RMK AO2 TSB56 P0004 T02670256 $
Temperature: 26.7°C ( 80°F)
Dewpoint: 25.6°C ( 78°F) [RH = 94%]
Pressure (altimeter):29.91 inches Hg (1013.0 mb)
Winds:from the ESE (120 degrees) at 6 MPH (5 knots; 2.6 m/s)
Visibility: 4 sm ( 6 km)
Ceiling:1100 feet AGL
Clouds: broken clouds at 1100 feet AGL, overcast cloud deck at 1600 feet AGL
Weather:-TSRA BR (light rain associated with thunderstorm(s), mist)
QC Flag:automated observation with no human augmentation; SOME DATA ABOVE MAY BE INACCURATE!!!"$" is an indication the sensor requires maintenance.
Text:KHSE 310951Z AUTO 08005KT 2SM RA BR BKN011 OVC016 27/26 A2990 RMK AO2 VIS 1V5 RAB0852E02B31 SLP125 P0024 T02670256 $
Temperature: 26.7°C ( 80°F)
Dewpoint: 25.6°C ( 78°F) [RH = 94%]
Pressure (altimeter):29.90 inches Hg (1012.6 mb) [Sea level pressure: 1012.5 mb]
Winds:from the E (80 degrees) at 6 MPH (5 knots; 2.6 m/s)
Visibility: 2.00 sm ( 3.22 km)
Ceiling:1100 feet AGL
Clouds: broken clouds at 1100 feet AGL, overcast cloud deck at 1600 feet AGL
Weather:RA BR (moderate rain, mist)
QC Flag:automated observation with no human augmentation; SOME DATA ABOVE MAY BE INACCURATE!!!"$" is an indication the sensor requires maintenance.
Text:KHSE 310947Z AUTO 07004KT 1 1/2SM +RA BR BKN011 27/26 A2990 RMK AO2 VIS 1V3 RAB0852E02B31 P0017 $
Temperature: 27.0°C ( 81°F)
Dewpoint: 26.0°C ( 79°F) [RH = 94%]
Pressure (altimeter):29.90 inches Hg (1012.6 mb)
Winds:from the ENE (70 degrees) at 5 MPH (4 knots; 2.1 m/s)
Visibility: 1.50 sm ( 2.41 km)
Ceiling:1100 feet AGL
Clouds: broken clouds at 1100 feet AGL
Weather:+RA BR (heavy rain, mist)
QC Flag:automated observation with no human augmentation; SOME DATA ABOVE MAY BE INACCURATE!!!"$" is an indication the sensor requires maintenance.
Text:KHSE 310941Z AUTO VRB03KT 1SM +RA BR BKN009 BKN013 OVC018 27/26 A2990 RMK AO2 RAB0852E02B31 CIG 006V011 P0011 T02720261 $
Temperature: 27.2°C ( 81°F)
Dewpoint: 26.1°C ( 79°F) [RH = 94%]
Pressure (altimeter):29.90 inches Hg (1012.6 mb)
Winds:variable direction winds at 3 MPH (3 knots; 1.5 m/s)
Visibility: 1.00 sm ( 1.61 km)
Ceiling:900 feet AGL
Clouds: broken clouds at 900 feet AGL, broken clouds at 1300 feet AGL, overcast cloud deck at 1800 feet AGL
Weather:+RA BR (heavy rain, mist)
QC Flag:automated observation with no human augmentation; SOME DATA ABOVE MAY BE INACCURATE!!!"$" is an indication the sensor requires maintenance.
Text:KHSE 310934Z AUTO 35004KT 1 1/2SM -RA BR BKN009 BKN020 28/26 A2989 RMK AO2 LTG DSNT E RAB0852E02B31 CIG 006V013 P0000 T02780261 $
Temperature: 27.8°C ( 82°F)
Dewpoint: 26.1°C ( 79°F) [RH = 91%]
Pressure (altimeter):29.89 inches Hg (1012.3 mb)
Winds:from the N (350 degrees) at 5 MPH (4 knots; 2.1 m/s)
Visibility: 1.50 sm ( 2.41 km)
Ceiling:900 feet AGL
Clouds: broken clouds at 900 feet AGL, broken clouds at 2000 feet AGL
Weather:-RA BR (light rain, mist)
QC Flag:automated observation with no human augmentation; SOME DATA ABOVE MAY BE INACCURATE!!!"$" is an indication the sensor requires maintenance.
Text:KHSE 310923Z AUTO 23004KT 5SM BR BKN009 BKN024 BKN070 27/26 A2989 RMK AO2 LTG DSNT E RAB0852E02 P0000 T02720261 $
Temperature: 27.2°C ( 81°F)
Dewpoint: 26.1°C ( 79°F) [RH = 94%]
Pressure (altimeter):29.89 inches Hg (1012.3 mb)
Winds:from the SW (230 degrees) at 5 MPH (4 knots; 2.1 m/s)
Visibility: 5 sm ( 8 km)
Ceiling:900 feet AGL
Clouds: broken clouds at 900 feet AGL, broken clouds at 2400 feet AGL, broken clouds at 7000 feet AGL
Weather:BR (mist)
QC Flag:automated observation with no human augmentation; SOME DATA ABOVE MAY BE INACCURATE!!!"$" is an indication the sensor requires maintenance.
Text:KHSE 310906Z AUTO VRB04KT 3SM BR FEW009 BKN031 OVC100 27/26 A2990 RMK AO2 LTG DSNT NE RAB0852E02 P0000 T02720261 $
Temperature: 27.2°C ( 81°F)
Dewpoint: 26.1°C ( 79°F) [RH = 94%]
Pressure (altimeter):29.90 inches Hg (1012.6 mb)
Winds:variable direction winds at 5 MPH (4 knots; 2.1 m/s)
Visibility: 3 sm ( 5 km)
Ceiling:3100 feet AGL
Clouds: few clouds at 900 feet AGL, broken clouds at 3100 feet AGL, overcast cloud deck at 10000 feet AGL
Weather:BR (mist)
QC Flag:automated observation with no human augmentation; SOME DATA ABOVE MAY BE INACCURATE!!!"$" is an indication the sensor requires maintenance.
Text:KHSE 310859Z AUTO 00000KT 4SM -RA BR SCT011 BKN035 OVC100 27/26 A2990 RMK AO2 LTG DSNT NE RAB52 P0000 T02720261 $
Temperature: 27.2°C ( 81°F)
Dewpoint: 26.1°C ( 79°F) [RH = 94%]
Pressure (altimeter):29.90 inches Hg (1012.6 mb)
Winds:calm
Visibility: 4 sm ( 6 km)
Ceiling:3500 feet AGL
Clouds: scattered clouds at 1100 feet AGL, broken clouds at 3500 feet AGL, overcast cloud deck at 10000 feet AGL
Weather:-RA BR (light rain, mist)
QC Flag:automated observation with no human augmentation; SOME DATA ABOVE MAY BE INACCURATE!!!"$" is an indication the sensor requires maintenance.
Text:KHSE 310615Z AUTO 25006KT 6SM BR BKN010 27/26 A2991
Temperature: 27.0°C ( 81°F)
Dewpoint: 26.0°C ( 79°F) [RH = 94%]
Pressure (altimeter):29.91 inches Hg (1013.0 mb)
Winds:from the WSW (250 degrees) at 7 MPH (6 knots; 3.1 m/s)
Visibility: 6 sm ( 10 km)
Ceiling:1000 feet AGL
Clouds: broken clouds at 1000 feet AGL
Weather:BR (mist)
Text:KHSE 310451Z AUTO 24011G17KT 6SM BR FEW055 27/26 A2990 RMK AO2 LTG DSNT N AND NE SLP125 T02720256 403060267 $
Temperature: 27.2°C ( 81°F)
Dewpoint: 25.6°C ( 78°F) [RH = 91%]
Pressure (altimeter):29.90 inches Hg (1012.6 mb) [Sea level pressure: 1012.5 mb]
Winds:from the WSW (240 degrees) at 13 MPH (11 knots; 5.7 m/s) gusting to 20 MPH (17 knots; 8.7 m/s)
Visibility: 6 sm ( 10 km)
Ceiling:at least 12,000 feet AGL
Clouds: few clouds at 5500 feet AGL
Weather:BR (mist)
QC Flag:automated observation with no human augmentation; SOME DATA ABOVE MAY BE INACCURATE!!!"$" is an indication the sensor requires maintenance.
Text:KHSE 310351Z AUTO 25009KT 6SM BR CLR 27/26 A2991 RMK AO2 SLP129 T02720256 $
Temperature: 27.2°C ( 81°F)
Dewpoint: 25.6°C ( 78°F) [RH = 91%]
Pressure (altimeter):29.91 inches Hg (1013.0 mb) [Sea level pressure: 1012.9 mb]
Winds:from the WSW (250 degrees) at 10 MPH (9 knots; 4.6 m/s)
Visibility: 6 sm ( 10 km)
Ceiling:at least 12,000 feet AGL
Clouds:sky clear below 12,000 feet AGL
Weather:BR (mist)
QC Flag:automated observation with no human augmentation; SOME DATA ABOVE MAY BE INACCURATE!!!"$" is an indication the sensor requires maintenance.
Text:KHSE 310251Z AUTO 24008KT 6SM BR CLR 28/26 A2992 RMK AO2 SLP130 T02780256 $
Temperature: 27.8°C ( 82°F)
Dewpoint: 25.6°C ( 78°F) [RH = 88%]
Pressure (altimeter):29.92 inches Hg (1013.3 mb) [Sea level pressure: 1013.0 mb]
Winds:from the WSW (240 degrees) at 9 MPH (8 knots; 4.1 m/s)
Visibility: 6 sm ( 10 km)
Ceiling:at least 12,000 feet AGL
Clouds:sky clear below 12,000 feet AGL
Weather:BR (mist)
QC Flag:automated observation with no human augmentation; SOME DATA ABOVE MAY BE INACCURATE!!!"$" is an indication the sensor requires maintenance.
Text:KHSE 310151Z AUTO 23009KT 6SM BR CLR 28/26 A2991 RMK AO2 SLP128 T02780256
Temperature: 27.8°C ( 82°F)
Dewpoint: 25.6°C ( 78°F) [RH = 88%]
Pressure (altimeter):29.91 inches Hg (1013.0 mb) [Sea level pressure: 1012.8 mb]
Winds:from the SW (230 degrees) at 10 MPH (9 knots; 4.6 m/s)
Visibility: 6 sm ( 10 km)
Ceiling:at least 12,000 feet AGL
Clouds:sky clear below 12,000 feet AGL
Weather:BR (mist)
QC Flag:automated observation with no human augmentation
Text:KHSE 310051Z AUTO 24008KT 6SM BR CLR 28/26 A2989 RMK AO2 SLP122 T02780261
Temperature: 27.8°C ( 82°F)
Dewpoint: 26.1°C ( 79°F) [RH = 91%]
Pressure (altimeter):29.89 inches Hg (1012.3 mb) [Sea level pressure: 1012.2 mb]
Winds:from the WSW (240 degrees) at 9 MPH (8 knots; 4.1 m/s)
Visibility: 6 sm ( 10 km)
Ceiling:at least 12,000 feet AGL
Clouds:sky clear below 12,000 feet AGL
Weather:BR (mist)
QC Flag:automated observation with no human augmentation
Text:KHSE 302351Z AUTO 23011KT 5SM BR CLR 28/26 A2988 RMK AO2 SLP117 T02780261 10306 20278 51001
Temperature: 27.8°C ( 82°F)
Dewpoint: 26.1°C ( 79°F) [RH = 91%]
Pressure (altimeter):29.88 inches Hg (1011.9 mb) [Sea level pressure: 1011.7 mb]
Winds:from the SW (230 degrees) at 13 MPH (11 knots; 5.7 m/s)
Visibility: 5 sm ( 8 km)
Ceiling:at least 12,000 feet AGL
Clouds:sky clear below 12,000 feet AGL
Weather:BR (mist)
QC Flag:automated observation with no human augmentation
Text:KHSE 302251Z AUTO 23011KT 6SM BR CLR 28/26 A2988 RMK AO2 SLP117 T02830261
Temperature: 28.3°C ( 83°F)
Dewpoint: 26.1°C ( 79°F) [RH = 88%]
Pressure (altimeter):29.88 inches Hg (1011.9 mb) [Sea level pressure: 1011.7 mb]
Winds:from the SW (230 degrees) at 13 MPH (11 knots; 5.7 m/s)
Visibility: 6 sm ( 10 km)
Ceiling:at least 12,000 feet AGL
Clouds:sky clear below 12,000 feet AGL
Weather:BR (mist)
QC Flag:automated observation with no human augmentation
Text:KHSE 302151Z AUTO 24013G19KT 7SM CLR 29/26 A2988 RMK AO2 SLP119 T02890261
Temperature: 28.9°C ( 84°F)
Dewpoint: 26.1°C ( 79°F) [RH = 85%]
Pressure (altimeter):29.88 inches Hg (1011.9 mb) [Sea level pressure: 1011.9 mb]
Winds:from the WSW (240 degrees) at 15 MPH (13 knots; 6.7 m/s) gusting to 22 MPH (19 knots; 9.8 m/s)
Visibility: 7 sm ( 11 km)
Ceiling:at least 12,000 feet AGL
Clouds:sky clear below 12,000 feet AGL
QC Flag:automated observation with no human augmentation
Text:KHSE 302051Z AUTO 24012G20KT 7SM CLR 30/26 A2988 RMK AO2 SLP117 T03000261 53003
Temperature: 30.0°C ( 86°F)
Dewpoint: 26.1°C ( 79°F) [RH = 80%]
Pressure (altimeter):29.88 inches Hg (1011.9 mb) [Sea level pressure: 1011.7 mb]
Winds:from the WSW (240 degrees) at 14 MPH (12 knots; 6.2 m/s) gusting to 23 MPH (20 knots; 10.3 m/s)
Visibility: 7 sm ( 11 km)
Ceiling:at least 12,000 feet AGL
Clouds:sky clear below 12,000 feet AGL
QC Flag:automated observation with no human augmentation